Perryville, Alaska
Current Conditions -  °F | °C
As of 2:56 PM on Monday 22 Dec 2014 (Local Time) from PAJC Reporting Station
Overcast Overcast  
Wind Chill: 23°   Ceiling: 3900
Heat Index: 30°   Visibility: 10mi
Dew Point: 19°   Wind: 8mph
Humidity: 64%   Direction: 260°W
Pressure: 29.8"   Gusts: NA
Location:  55.91°N, 159.16°W
Report Text: PAJC 222356Z AUTO 26007KT 10SM OVC039 M01/M07 A2980 RMK AO1 11010 21020 400201020 52007
Loading
Personal Weather Stations






























Interactive Weather Map New forecast layout! Learn more

10-Day Weather Forecast

Advertisements
Track Severe Weather on mobile